Alveringem, Belgium
Current Conditions -  °F | °C
As of 10:25 PM on Saturday 22 Nov 2014 (Local Time) from EBFN Reporting Station
Broken Clouds Broken Clouds  
Wind Chill: 50°   Ceiling: 1500
Heat Index: 50°   Visibility: 4mi
Dew Point: 50°   Wind: 1mph
Humidity: 100%   Direction: NA
Pressure: 30.03"   Gusts: NA
Location:  51.01°N, 2.71°E
Report Text: EBFN 222125Z VRB01KT 6000 BKN015 10/10 Q1017 WHT
Loading
Personal Weather Stations






























Interactive Weather Map New forecast layout! Learn more

10-Day Weather Forecast

Advertisements
Track Severe Weather on mobile